首页
METAR-TAF:

METAR-TAF

机场 :

Ottumwa Industrial Airport

Ottumwa, 艾奥瓦州, 美国

纬度: 41-06-24N, 经度: 092-26-53W, 海拔: 258米

当前天气观测

该预报发布于39分钟前的02:53 UTC
风速7节,风向
温度 20°C
湿度 83%
气压 1013 hPa
能見度: 16.1公里
天空无云

METAR: KOTM 170253Z AUTO 08007KT 10SM CLR 20/17 A2991 RMK AO2 SLP125 T02000172 53020 $

时间: 22:32 (03:32 UTC)

预报

该预报发布于3小时和50分钟前的23:42 UTC
预报有效从17日的 00点(UTC)到 17日的 24点(UTC)
风速6节,风向
能見度: 10公里
散云层高于3000英尺
多云层高于5000英尺
短暂存在
从 17日的 00点(UTC)到 17日的 02点(UTC)
多云层高于3000英尺
从 17日的 0800点(UTC)
风速6节,风向北转东北
能見度: 8.0公里
阴天层高于3000英尺
轻雾
从 17日的 1300点(UTC)
风速7节,风向东转东北
能見度: 10公里
多云层高于3000英尺
从 17日的 1800点(UTC)
风速5节,风向东北
能見度: 10公里
散云层高于5000英尺
多云层高于25000英尺

TAF: KOTM 162342Z 1700/1724 01006KT P6SM SCT030 BKN050 TEMPO 1700/1702 BKN030 FM170800 03006KT 5SM BR OVC030 FM171300 07007KT P6SM BKN030 FM171800 04005KT P6SM SCT050 BKN250

超过4000个机场的气象观测和天气预报(METAR&TAF报告)。

可查询的气象台以黄色和红色小点在地图上表示。

将鼠标移到小点上方,可查看气象台名称。

然后点击查看天气观测和预报。

如需切换地图:点击带黑十字的绿色按钮放大地图;点击带横线的绿色按钮缩小地图;或者点击绿色箭头查看邻近地区的地图。


METAR-TAF: